Time;durP1;ratioP1;P1;durP2;ratioP2;P2;SDS_P1;SDS_P2;PMS_P1;PMS_P2;Temp;Humidity;BMP_temperature;BMP_pressure;BME280_temperature;BME280_humidity;BME280_pressure;Samples;Min_cycle;Max_cycle;Signal;HPM_P1;HPM_P2
2021/09/21 00:02:25;;;;;;;7.95;6.20;;;6.30;99.90;;;;;;5052632;28;20028;-81
2021/09/21 00:04:51;;;;;;;7.32;5.80;;;6.30;99.90;;;;;;5052450;28;20444;-81
2021/09/21 00:07:17;;;;;;;8.30;5.80;;;6.30;99.90;;;;;;5052194;28;20029;-79
2021/09/21 00:09:45;;;;;;;8.23;6.18;;;6.30;99.90;;;;;;5052585;28;20056;-80
2021/09/21 00:12:10;;;;;;;6.40;5.50;;;6.30;99.90;;;;;;5034073;28;20029;-80
2021/09/21 00:14:38;;;;;;;7.45;6.40;;;6.30;99.90;;;;;;5052327;28;20033;-81
2021/09/21 00:17:04;;;;;;;7.13;5.78;;;6.30;99.90;;;;;;5052096;28;20104;-80
2021/09/21 00:19:32;;;;;;;7.55;5.43;;;6.30;99.90;;;;;;5051911;28;20136;-79
2021/09/21 00:22:00;;;;;;;11.73;6.07;;;6.40;99.90;;;;;;5052097;28;20036;-81
2021/09/21 00:24:26;;;;;;;7.53;5.90;;;6.30;99.90;;;;;;5052445;28;20066;-81
2021/09/21 00:26:51;;;;;;;8.18;6.13;;;6.30;99.90;;;;;;5034381;28;20432;-82
2021/09/21 00:29:17;;;;;;;9.82;6.57;;;6.30;99.90;;;;;;5051170;28;20464;-81
2021/09/21 00:31:49;;;;;;;7.88;6.50;;;6.30;99.90;;;;;;5052565;28;20036;-81
2021/09/21 00:34:15;;;;;;;8.70;6.63;;;6.30;99.90;;;;;;5051934;28;20025;-83
2021/09/21 00:36:41;;;;;;;8.00;6.03;;;6.30;99.90;;;;;;5033923;28;20360;-82
2021/09/21 00:39:10;;;;;;;6.57;5.85;;;6.30;99.90;;;;;;5051193;28;20123;-81
2021/09/21 00:41:40;;;;;;;7.05;6.10;;;6.40;99.90;;;;;;5052522;28;20014;-82
2021/09/21 00:44:07;;;;;;;8.25;5.93;;;6.40;99.90;;;;;;5034145;28;20029;-81
2021/09/21 00:46:33;;;;;;;7.97;6.00;;;6.40;99.90;;;;;;5049668;28;20029;-82
2021/09/21 00:48:59;;;;;;;8.77;6.10;;;6.50;99.90;;;;;;5052010;28;20022;-82
2021/09/21 00:51:25;;;;;;;7.03;5.75;;;6.40;99.90;;;;;;5051937;28;20049;-81
2021/09/21 00:53:53;;;;;;;8.32;7.00;;;6.30;99.90;;;;;;5052221;28;20018;-82
2021/09/21 00:56:18;;;;;;;;;;;6.40;99.90;;;;;;5055881;28;20131;-82
2021/09/21 00:58:44;;;;;;;7.78;6.70;;;6.30;99.90;;;;;;5038116;28;19913;-82
2021/09/21 01:01:10;;;;;;;7.97;6.45;;;6.30;99.90;;;;;;5055913;28;20029;-82
2021/09/21 01:03:36;;;;;;;10.23;6.28;;;6.30;99.90;;;;;;5057195;28;20021;-84
2021/09/21 01:06:02;;;;;;;8.25;6.80;;;6.30;99.90;;;;;;5067657;28;20025;-82
2021/09/21 01:08:28;;;;;;;7.28;6.57;;;6.40;99.90;;;;;;5060989;28;20446;-81
2021/09/21 01:10:54;;;;;;;7.30;5.72;;;6.40;99.90;;;;;;5056572;28;20099;-82
2021/09/21 01:13:20;;;;;;;7.80;7.00;;;6.40;99.90;;;;;;5056358;28;20052;-81
2021/09/21 01:15:46;;;;;;;7.75;6.38;;;6.40;99.90;;;;;;5069960;28;20033;-80
2021/09/21 01:18:11;;;;;;;9.40;7.28;;;6.40;99.90;;;;;;5056928;28;20116;-81
2021/09/21 01:20:37;;;;;;;11.00;5.90;;;6.50;99.90;;;;;;5056319;28;20017;-82
2021/09/21 01:23:05;;;;;;;6.55;5.88;;;6.40;99.90;;;;;;5056169;28;20029;-81
2021/09/21 01:25:33;;;;;;;8.18;6.22;;;6.40;99.90;;;;;;5060582;28;20025;-83
2021/09/21 01:27:59;;;;;;;6.70;5.88;;;6.40;99.90;;;;;;5059101;28;20022;-82
2021/09/21 01:30:25;;;;;;;7.88;6.72;;;6.40;99.90;;;;;;5059245;28;20032;-82
2021/09/21 01:32:51;;;;;;;7.35;6.30;;;6.40;99.90;;;;;;5047059;28;20027;-82
2021/09/21 01:35:17;;;;;;;7.60;6.80;;;6.40;99.90;;;;;;5055189;28;20039;-80
2021/09/21 01:37:47;;;;;;;9.48;6.20;;;6.40;99.90;;;;;;5037831;28;20082;-80
2021/09/21 01:40:13;;;;;;;8.25;6.55;;;6.40;99.90;;;;;;5053616;28;20478;-80
2021/09/21 01:42:47;;;;;;;9.45;6.53;;;6.40;99.90;;;;;;5055253;28;20524;-81
2021/09/21 01:45:15;;;;;;;7.32;6.63;;;6.40;99.90;;;;;;5055255;28;20025;-81
2021/09/21 01:47:41;;;;;;;8.40;5.68;;;6.40;99.90;;;;;;5055258;28;20025;-81
2021/09/21 01:50:21;;;;;;;7.50;6.45;;;6.40;99.90;;;;;;5055076;28;20510;-82
2021/09/21 02:00:45;;;;;;;8.18;5.97;;;6.40;99.90;;;;;;5055113;28;20040;-84
2021/09/21 02:03:11;;;;;;;9.40;6.65;;;6.40;99.90;;;;;;5055443;28;20017;-83
2021/09/21 02:05:37;;;;;;;6.80;5.88;;;6.40;99.90;;;;;;5055368;28;20087;-81
2021/09/21 02:08:03;;;;;;;7.05;5.72;;;6.40;99.90;;;;;;5054750;28;20033;-82
2021/09/21 02:10:29;;;;;;;7.35;5.50;;;6.50;99.90;;;;;;5054876;28;20021;-83
2021/09/21 02:12:55;;;;;;;6.82;6.07;;;6.50;99.90;;;;;;5054613;28;20116;-82
2021/09/21 02:15:21;;;;;;;8.23;5.95;;;6.50;99.90;;;;;;5053039;28;20087;-82
2021/09/21 02:17:48;;;;;;;8.37;5.83;;;6.50;99.90;;;;;;5054553;28;20021;-83
2021/09/21 02:20:14;;;;;;;6.63;6.00;;;6.50;99.90;;;;;;5053257;28;20111;-82
2021/09/21 02:22:39;;;;;;;7.95;5.68;;;6.50;99.90;;;;;;5054581;28;20595;-81
2021/09/21 02:25:06;;;;;;;6.22;5.53;;;6.50;99.90;;;;;;5054315;28;20382;-84
2021/09/21 02:27:32;;;;;;;6.72;6.00;;;6.50;99.90;;;;;;5054293;28;20028;-83
2021/09/21 02:29:58;;;;;;;6.82;5.63;;;6.50;99.90;;;;;;5051497;28;20020;-83
2021/09/21 02:32:24;;;;;;;6.07;5.47;;;6.50;99.90;;;;;;5052756;28;20099;-82
2021/09/21 02:34:50;;;;;;;5.95;5.30;;;6.50;99.90;;;;;;5053990;28;20029;-81
2021/09/21 02:37:17;;;;;;;7.22;5.50;;;6.50;99.90;;;;;;5053723;28;20017;-82
2021/09/21 02:39:43;;;;;;;6.90;6.25;;;6.50;99.90;;;;;;5053109;28;20043;-84
2021/09/21 02:42:09;;;;;;;8.80;6.18;;;6.50;99.90;;;;;;5053914;28;20029;-84
2021/09/21 02:44:36;;;;;;;5.80;5.07;;;6.60;99.90;;;;;;5054156;28;20035;-83
2021/09/21 02:47:03;;;;;;;6.63;5.55;;;6.60;99.90;;;;;;5055310;28;20029;-84
2021/09/21 02:49:29;;;;;;;9.60;5.72;;;6.50;99.90;;;;;;5069410;28;20024;-83
2021/09/21 02:51:55;;;;;;;8.95;5.78;;;6.60;99.90;;;;;;5036599;28;20052;-81
2021/09/21 02:54:21;;;;;;;6.55;5.72;;;6.60;99.90;;;;;;5053478;28;20029;-82
2021/09/21 02:56:46;;;;;;;5.80;5.28;;;6.60;99.90;;;;;;5053340;28;20021;-82
2021/09/21 02:59:12;;;;;;;5.95;5.05;;;6.60;99.90;;;;;;5053983;28;20052;-82
2021/09/21 03:01:38;;;;;;;5.20;4.70;;;6.60;99.90;;;;;;5058136;28;20013;-83
2021/09/21 03:04:11;;;;;;;5.30;4.72;;;6.60;99.90;;;;;;5044502;28;20046;-85
2021/09/21 03:06:42;;;;;;;7.35;4.63;;;6.60;99.90;;;;;;5053562;28;20030;-83
2021/09/21 03:09:37;;;;;;;7.93;5.20;;;6.60;99.90;;;;;;5063061;28;20023;-84
2021/09/21 03:17:28;;;;;;;7.40;5.90;;;6.60;99.90;;;;;;5045602;28;20067;-82
2021/09/21 03:19:59;;;;;;;5.75;5.15;;;6.60;99.90;;;;;;5037041;28;20029;-83
2021/09/21 03:22:27;;;;;;;6.75;5.65;;;6.60;99.90;;;;;;5027717;28;20014;-83
2021/09/21 03:24:54;;;;;;;9.27;5.57;;;6.50;99.90;;;;;;5055705;28;20033;-82
2021/09/21 03:27:20;;;;;;;5.50;5.00;;;6.60;99.90;;;;;;5058250;28;20017;-84
2021/09/21 03:29:46;;;;;;;5.88;5.05;;;6.50;99.90;;;;;;5053049;28;20262;-82
2021/09/21 03:32:12;;;;;;;7.25;5.88;;;6.50;99.90;;;;;;5034479;28;20028;-83
2021/09/21 03:34:39;;;;;;;8.48;6.20;;;6.50;99.90;;;;;;5046685;28;20037;-82
2021/09/21 03:37:07;;;;;;;6.55;5.57;;;6.50;99.90;;;;;;5048918;28;20071;-83
2021/09/21 03:39:33;;;;;;;8.18;6.10;;;6.60;99.90;;;;;;5053284;28;20036;-86
2021/09/21 03:41:59;;;;;;;6.57;5.40;;;6.60;99.90;;;;;;5061964;28;20035;-83
2021/09/21 03:44:26;;;;;;;6.70;5.75;;;6.60;99.90;;;;;;5053040;28;20401;-85
2021/09/21 03:46:53;;;;;;;4.88;4.25;;;6.70;99.90;;;;;;5052799;28;20036;-81
2021/09/21 03:49:19;;;;;;;4.50;3.78;;;6.70;99.90;;;;;;5052561;28;20021;-84
2021/09/21 03:51:45;;;;;;;6.13;5.07;;;6.60;99.90;;;;;;5050193;28;20048;-81
2021/09/21 03:54:11;;;;;;;6.13;5.07;;;6.60;99.90;;;;;;5052661;28;20367;-86
2021/09/21 03:56:37;;;;;;;5.20;3.53;;;6.70;99.90;;;;;;5058289;28;20069;-83
2021/09/21 03:59:07;;;;;;;4.93;3.92;;;6.70;99.90;;;;;;5064433;28;20021;-83
2021/09/21 04:01:33;;;;;;;6.93;5.85;;;6.70;99.90;;;;;;5052250;28;20032;-81
2021/09/21 04:04:00;;;;;;;7.40;5.90;;;6.60;99.90;;;;;;5052679;28;20024;-81
2021/09/21 04:06:26;;;;;;;6.90;6.20;;;6.70;99.90;;;;;;5052152;28;20025;-82
2021/09/21 04:08:53;;;;;;;8.30;5.28;;;6.70;99.90;;;;;;5054194;28;20348;-82
2021/09/21 04:11:20;;;;;;;6.68;5.57;;;6.70;99.90;;;;;;5034313;28;20053;-81
2021/09/21 04:13:47;;;;;;;7.30;5.40;;;6.80;99.90;;;;;;5035110;28;20032;-82
2021/09/21 04:16:13;;;;;;;7.00;5.22;;;6.80;99.90;;;;;;5034136;28;20086;-81
2021/09/21 04:18:39;;;;;;;6.68;4.05;;;6.80;99.90;;;;;;5051993;28;20013;-82
2021/09/21 04:21:05;;;;;;;5.97;4.50;;;6.80;99.90;;;;;;5052289;28;20029;-80
2021/09/21 04:23:31;;;;;;;8.35;6.10;;;6.80;99.90;;;;;;5052574;28;20029;-81
2021/09/21 04:25:57;;;;;;;7.20;5.40;;;6.80;99.90;;;;;;5052054;28;20482;-81
2021/09/21 04:28:24;;;;;;;11.95;8.80;;;6.90;99.90;;;;;;5040108;28;20497;-80
2021/09/21 04:30:51;;;;;;;7.28;6.55;;;6.90;99.90;;;;;;5055951;28;20024;-81
2021/09/21 04:33:17;;;;;;;9.65;6.63;;;6.90;99.90;;;;;;5055822;28;20029;-81
2021/09/21 04:35:43;;;;;;;7.22;4.20;;;6.90;99.90;;;;;;5058412;28;20043;-82
2021/09/21 04:38:11;;;;;;;4.32;3.92;;;6.90;99.90;;;;;;5056026;28;20142;-83
2021/09/21 04:40:38;;;;;;;7.38;4.82;;;6.80;99.90;;;;;;5055808;28;20077;-83
2021/09/21 04:43:05;;;;;;;4.15;3.47;;;6.90;99.90;;;;;;5038071;28;20486;-81
2021/09/21 04:45:33;;;;;;;4.32;3.63;;;6.80;99.90;;;;;;5055500;28;20029;-81
2021/09/21 04:47:58;;;;;;;5.22;4.50;;;6.80;99.90;;;;;;5054362;28;20025;-81
2021/09/21 04:50:24;;;;;;;7.35;4.22;;;6.80;99.90;;;;;;5056027;28;20522;-82
2021/09/21 04:52:50;;;;;;;4.78;4.03;;;6.90;99.90;;;;;;5057089;28;20021;-82
2021/09/21 04:55:16;;;;;;;5.03;4.18;;;6.90;99.90;;;;;;5068522;28;20033;-81
2021/09/21 04:57:42;;;;;;;7.20;4.47;;;7.00;99.90;;;;;;5038205;28;20022;-80
2021/09/21 05:00:09;;;;;;;3.22;2.92;;;7.00;99.90;;;;;;5055479;28;20073;-80
2021/09/21 05:02:36;;;;;;;7.47;4.40;;;7.00;99.90;;;;;;5056228;28;20017;-81
2021/09/21 05:05:02;;;;;;;4.50;3.45;;;7.00;99.90;;;;;;5056374;28;20502;-80
2021/09/21 05:07:28;;;;;;;4.68;3.45;;;7.00;99.90;;;;;;5056042;28;20044;-81
2021/09/21 05:09:54;;;;;;;3.58;2.88;;;7.00;99.90;;;;;;5059541;28;20029;-80
2021/09/21 05:12:20;;;;;;;4.55;3.40;;;7.00;99.90;;;;;;5064044;28;20500;-81
2021/09/21 05:14:46;;;;;;;5.25;3.30;;;6.90;99.90;;;;;;5061693;28;20095;-81
2021/09/21 05:17:12;;;;;;;4.97;3.38;;;7.00;99.90;;;;;;5058892;28;20025;-82
2021/09/21 05:19:37;;;;;;;4.82;3.53;;;7.00;99.90;;;;;;5055284;28;20097;-80
2021/09/21 05:22:03;;;;;;;4.88;3.38;;;7.00;99.90;;;;;;5055931;28;20017;-82
2021/09/21 05:24:29;;;;;;;4.28;2.83;;;7.10;99.90;;;;;;5058685;28;20048;-82
2021/09/21 05:26:55;;;;;;;5.03;2.67;;;7.10;99.90;;;;;;5044698;28;20453;-82
2021/09/21 05:29:20;;;;;;;4.55;2.72;;;7.10;99.90;;;;;;5054649;28;20021;-81
2021/09/21 05:31:46;;;;;;;7.20;3.90;;;7.20;99.90;;;;;;5054891;28;20103;-81
2021/09/21 05:34:12;;;;;;;8.88;4.47;;;7.30;99.90;;;;;;5054315;28;20029;-81
2021/09/21 05:36:38;;;;;;;4.35;2.58;;;7.30;99.90;;;;;;5054664;28;20505;-81
2021/09/21 05:39:04;;;;;;;6.00;3.70;;;7.30;99.90;;;;;;5054703;28;20059;-82
2021/09/21 05:41:29;;;;;;;3.83;2.72;;;7.20;99.90;;;;;;5054131;28;20029;-82
2021/09/21 05:43:55;;;;;;;6.68;3.00;;;7.20;99.90;;;;;;5054461;28;20102;-82
2021/09/21 05:46:21;;;;;;;4.60;2.97;;;7.20;99.90;;;;;;5054545;28;20036;-80
2021/09/21 05:48:49;;;;;;;4.95;3.97;;;7.20;99.90;;;;;;5054498;28;20025;-83
2021/09/21 05:51:15;;;;;;;4.75;3.70;;;7.20;99.90;;;;;;5041189;28;20053;-80
2021/09/21 05:53:41;;;;;;;8.02;3.92;;;7.30;99.90;;;;;;5057792;28;20021;-83
2021/09/21 05:56:07;;;;;;;6.20;3.28;;;7.30;99.90;;;;;;5056255;28;20040;-82
2021/09/21 05:58:33;;;;;;;4.32;3.58;;;7.40;99.90;;;;;;5053346;28;20390;-82
2021/09/21 06:00:59;;;;;;;4.80;3.42;;;7.40;99.90;;;;;;5054646;28;20033;-81
2021/09/21 06:03:26;;;;;;;6.45;3.60;;;7.50;99.90;;;;;;5054194;28;20442;-81
2021/09/21 06:05:51;;;;;;;5.93;3.45;;;7.50;99.90;;;;;;5054335;28;20025;-82
2021/09/21 06:08:17;;;;;;;5.22;2.85;;;7.40;99.90;;;;;;5052657;28;20430;-81
2021/09/21 06:10:43;;;;;;;5.70;3.30;;;7.40;99.90;;;;;;5054585;28;20067;-82
2021/09/21 06:13:09;;;;;;;5.78;3.55;;;7.30;99.90;;;;;;5054677;28;20024;-81
2021/09/21 06:15:35;;;;;;;4.13;3.13;;;7.30;99.90;;;;;;5054076;28;20028;-83
2021/09/21 06:18:01;;;;;;;10.25;4.13;;;7.30;99.90;;;;;;5054160;28;20021;-82
2021/09/21 06:20:26;;;;;;;6.68;3.83;;;7.30;99.90;;;;;;5068053;28;20028;-83
2021/09/21 06:22:52;;;;;;;5.00;3.22;;;7.30;99.90;;;;;;5053725;28;20021;-83
2021/09/21 06:25:18;;;;;;;4.43;3.53;;;7.40;99.90;;;;;;5044583;28;20025;-82
2021/09/21 06:27:45;;;;;;;5.88;3.97;;;7.40;99.90;;;;;;5052756;28;20419;-82
2021/09/21 06:30:13;;;;;;;9.32;4.78;;;7.40;99.90;;;;;;5053528;28;20033;-83
2021/09/21 06:32:40;;;;;;;3.75;2.85;;;7.40;99.90;;;;;;5054585;28;20094;-82
2021/09/21 06:35:06;;;;;;;5.43;3.08;;;7.30;99.90;;;;;;5054206;28;20040;-81
2021/09/21 06:37:35;;;;;;;4.72;2.95;;;7.30;99.90;;;;;;5053828;28;20021;-83
2021/09/21 06:40:02;;;;;;;4.68;2.97;;;7.30;99.90;;;;;;5065927;28;20054;-82
2021/09/21 06:42:31;;;;;;;3.80;2.72;;;7.30;99.90;;;;;;5063229;28;20359;-80
2021/09/21 06:44:56;;;;;;;4.20;3.47;;;7.30;99.90;;;;;;5050705;28;20053;-83
2021/09/21 06:47:23;;;;;;;5.07;3.67;;;7.30;99.90;;;;;;5053427;28;20072;-83
2021/09/21 06:49:49;;;;;;;6.13;4.10;;;7.40;99.90;;;;;;5062186;28;20019;-84
2021/09/21 06:52:15;;;;;;;5.15;4.32;;;7.40;99.90;;;;;;5058270;28;20382;-84
2021/09/21 06:54:41;;;;;;;4.90;4.05;;;7.50;99.90;;;;;;5059292;28;20040;-82
2021/09/21 06:57:06;;;;;;;4.68;3.65;;;7.60;99.90;;;;;;5053724;28;20061;-82
2021/09/21 06:59:33;;;;;;;4.18;3.42;;;7.50;99.90;;;;;;5053226;28;20029;-82
2021/09/21 07:01:59;;;;;;;5.20;4.07;;;7.50;99.90;;;;;;5054997;28;20073;-82
2021/09/21 07:04:24;;;;;;;6.82;4.47;;;7.40;99.90;;;;;;5054847;28;20500;-81
2021/09/21 07:06:50;;;;;;;7.97;5.88;;;7.40;99.90;;;;;;5054209;28;20028;-82
2021/09/21 07:09:16;;;;;;;6.28;4.75;;;7.40;99.90;;;;;;5052801;28;20040;-83
2021/09/21 07:11:42;;;;;;;5.85;4.25;;;7.40;99.90;;;;;;5052846;28;20066;-82
2021/09/21 07:14:08;;;;;;;7.57;4.90;;;7.50;99.90;;;;;;5052161;28;20386;-82
2021/09/21 07:16:33;;;;;;;6.30;4.53;;;7.50;99.90;;;;;;5051376;28;20139;-83
2021/09/21 07:18:59;;;;;;;8.45;5.78;;;7.50;99.90;;;;;;5060283;28;20076;-82
2021/09/21 07:21:25;;;;;;;5.57;4.60;;;7.50;99.90;;;;;;5056114;28;20021;-81
2021/09/21 07:23:51;;;;;;;8.75;5.22;;;7.50;99.90;;;;;;5047856;28;20474;-82
2021/09/21 07:26:17;;;;;;;6.60;4.10;;;7.50;99.90;;;;;;5053255;28;20432;-82
2021/09/21 07:28:43;;;;;;;6.55;5.40;;;7.50;99.90;;;;;;5051197;28;20037;-81
2021/09/21 07:31:09;;;;;;;11.60;6.22;;;7.50;99.90;;;;;;5054090;28;20100;-82
2021/09/21 07:33:35;;;;;;;9.65;6.43;;;7.50;99.90;;;;;;5052793;28;20024;-82
2021/09/21 07:36:01;;;;;;;7.50;5.70;;;7.60;99.90;;;;;;5051078;28;20029;-82
2021/09/21 07:38:27;;;;;;;8.35;6.78;;;7.60;99.90;;;;;;5053090;28;20398;-83
2021/09/21 07:40:52;;;;;;;7.35;6.20;;;7.60;99.90;;;;;;5052290;28;20405;-82
2021/09/21 07:43:18;;;;;;;9.15;7.05;;;7.60;99.90;;;;;;5052921;28;20163;-82
2021/09/21 07:45:44;;;;;;;6.70;6.00;;;7.60;99.90;;;;;;5052583;28;20486;-81
2021/09/21 07:48:13;;;;;;;9.05;7.13;;;7.70;99.90;;;;;;5052682;28;20060;-81
2021/09/21 07:50:39;;;;;;;9.80;7.20;;;7.80;99.90;;;;;;5052227;28;20044;-81
2021/09/21 07:53:05;;;;;;;8.30;6.50;;;7.70;99.90;;;;;;5052683;28;20017;-81
2021/09/21 07:55:30;;;;;;;8.15;7.15;;;7.80;99.90;;;;;;5052782;28;20035;-82
2021/09/21 07:57:56;;;;;;;7.88;6.38;;;7.80;99.90;;;;;;5052903;28;20086;-83
2021/09/21 08:00:22;;;;;;;7.00;5.68;;;7.80;99.90;;;;;;5052692;28;20025;-82
2021/09/21 08:02:48;;;;;;;10.25;6.28;;;7.80;99.90;;;;;;5051233;28;20357;-83
2021/09/21 08:05:14;;;;;;;6.75;5.45;;;7.70;99.90;;;;;;5052219;28;20481;-82
2021/09/21 08:07:41;;;;;;;6.47;5.88;;;7.70;99.90;;;;;;5052331;28;20070;-83
2021/09/21 08:10:07;;;;;;;10.90;6.97;;;7.80;99.90;;;;;;5052370;28;20032;-82
2021/09/21 08:12:33;;;;;;;6.60;5.63;;;7.80;99.90;;;;;;5053366;28;20029;-81
2021/09/21 08:14:59;;;;;;;8.40;5.70;;;7.80;99.90;;;;;;5057509;28;20060;-82
2021/09/21 08:17:27;;;;;;;7.75;5.50;;;7.80;99.90;;;;;;5054135;28;20025;-82
2021/09/21 08:19:54;;;;;;;6.82;5.57;;;7.70;99.90;;;;;;5034444;28;20513;-81
2021/09/21 08:22:20;;;;;;;10.00;7.28;;;7.60;99.90;;;;;;5049953;28;20389;-82
2021/09/21 08:24:47;;;;;;;7.82;5.22;;;7.60;99.90;;;;;;5052308;28;20028;-82
2021/09/21 08:27:13;;;;;;;8.00;6.00;;;7.60;99.90;;;;;;5034587;28;20546;-81
2021/09/21 08:29:39;;;;;;;9.85;7.07;;;7.60;99.90;;;;;;5051343;28;20266;-83
2021/09/21 08:32:06;;;;;;;10.32;6.95;;;7.60;99.90;;;;;;5052546;28;20014;-83
2021/09/21 08:34:33;;;;;;;7.35;5.57;;;7.80;99.90;;;;;;5052763;28;20497;-82
2021/09/21 08:37:00;;;;;;;7.40;5.88;;;7.70;99.90;;;;;;5054806;28;20032;-81
2021/09/21 08:39:26;;;;;;;6.97;4.93;;;7.60;99.90;;;;;;5053570;28;20027;-83
2021/09/21 08:41:52;;;;;;;10.00;6.30;;;7.60;99.90;;;;;;5052063;28;20083;-84
2021/09/21 08:44:19;;;;;;;8.75;6.47;;;7.60;99.90;;;;;;5052305;28;20017;-80
2021/09/21 08:46:46;;;;;;;8.10;6.28;;;7.60;99.90;;;;;;5052395;28;20025;-83
2021/09/21 08:49:12;;;;;;;7.53;5.15;;;7.60;99.90;;;;;;5051997;28;20466;-82
2021/09/21 08:51:38;;;;;;;11.50;7.10;;;7.60;99.90;;;;;;5052794;28;20453;-81
2021/09/21 08:54:05;;;;;;;8.57;6.93;;;7.70;99.90;;;;;;5052817;28;20017;-83
2021/09/21 08:56:31;;;;;;;10.18;6.72;;;7.70;99.90;;;;;;5052014;28;20051;-83
2021/09/21 08:59:01;;;;;;;9.57;6.55;;;7.80;99.90;;;;;;5062112;28;20021;-81
2021/09/21 09:01:45;;;;;;;9.95;7.68;;;7.70;99.90;;;;;;5056069;28;20021;-82
2021/09/21 09:04:13;;;;;;;8.70;6.03;;;7.80;99.90;;;;;;5052003;28;20094;-82
2021/09/21 09:06:49;;;;;;;7.50;6.25;;;7.80;99.90;;;;;;5052952;28;20032;-82
2021/09/21 09:09:17;;;;;;;7.95;5.50;;;7.70;99.90;;;;;;5053500;28;20386;-81
2021/09/21 09:11:47;;;;;;;8.50;5.72;;;7.60;99.90;;;;;;5052693;28;20031;-83
2021/09/21 09:14:31;;;;;;;7.70;6.32;;;7.60;99.90;;;;;;5054158;28;20029;-81
2021/09/21 09:17:01;;;;;;;7.97;5.72;;;7.70;99.90;;;;;;5061111;28;20028;-82
2021/09/21 09:19:36;;;;;;;8.25;5.78;;;7.70;99.90;;;;;;5054672;28;20033;-82
2021/09/21 09:22:26;;;;;;;6.97;6.05;;;7.80;99.90;;;;;;5023211;28;20075;-81
2021/09/21 09:25:05;;;;;;;7.63;5.35;;;7.70;99.90;;;;;;5043126;28;20524;-82
2021/09/21 09:27:44;;;;;;;7.07;4.63;;;7.70;99.90;;;;;;5042528;28;20122;-82
2021/09/21 09:30:31;;;;;;;7.97;5.50;;;7.60;99.90;;;;;;5055433;28;20029;-83
2021/09/21 09:33:00;;;;;;;6.45;5.18;;;7.60;99.90;;;;;;5054622;28;20017;-83
2021/09/21 09:35:32;;;;;;;12.57;6.88;;;7.70;99.90;;;;;;5054648;28;20497;-82
2021/09/21 09:38:01;;;;;;;5.65;4.90;;;7.70;99.90;;;;;;5054922;28;20375;-82
2021/09/21 09:40:28;;;;;;;8.40;5.80;;;7.70;99.90;;;;;;5054556;28;20056;-82
2021/09/21 09:42:55;;;;;;;5.70;5.00;;;7.70;99.90;;;;;;5054460;28;20351;-82
2021/09/21 09:45:33;;;;;;;6.67;4.43;;;7.70;99.90;;;;;;5055605;28;20067;-81
2021/09/21 09:47:59;;;;;;;6.72;4.88;;;7.60;99.90;;;;;;5045382;28;20024;-82
2021/09/21 09:50:31;;;;;;;5.78;4.53;;;7.60;99.90;;;;;;5039220;28;20045;-83
2021/09/21 09:53:03;;;;;;;5.63;4.55;;;7.70;99.90;;;;;;5040857;28;20021;-81
2021/09/21 09:55:32;;;;;;;7.65;5.65;;;7.70;99.90;;;;;;5054454;28;20033;-83
2021/09/21 09:57:59;;;;;;;7.80;5.88;;;7.70;99.90;;;;;;5053912;28;20021;-82
2021/09/21 10:00:25;;;;;;;6.90;5.68;;;7.80;99.90;;;;;;5036499;28;20025;-81
2021/09/21 10:02:52;;;;;;;6.15;5.45;;;7.80;99.90;;;;;;5055099;28;20045;-84
2021/09/21 10:05:18;;;;;;;11.27;7.57;;;7.80;99.90;;;;;;5055256;28;20032;-81
2021/09/21 10:07:46;;;;;;;7.63;4.78;;;7.80;99.90;;;;;;5054766;28;20025;-82
2021/09/21 10:10:12;;;;;;;9.10;6.03;;;7.70;99.90;;;;;;5052952;28;20425;-82
2021/09/21 10:12:38;;;;;;;15.88;10.02;;;7.80;99.90;;;;;;5064522;28;20029;-83
2021/09/21 10:15:06;;;;;;;9.25;6.95;;;7.80;99.90;;;;;;5057676;28;20033;-83
2021/09/21 10:17:33;;;;;;;9.18;7.20;;;7.90;99.90;;;;;;5054442;28;20135;-83
2021/09/21 10:19:59;;;;;;;13.60;7.38;;;7.90;99.90;;;;;;5041280;28;20076;-86
2021/09/21 10:22:30;;;;;;;10.23;5.80;;;7.90;99.90;;;;;;5054156;28;20017;-83
2021/09/21 10:25:04;;;;;;;10.00;5.25;;;7.90;99.90;;;;;;5053980;28;20021;-84
2021/09/21 10:27:34;;;;;;;9.45;5.45;;;7.90;99.90;;;;;;5051580;28;20482;-81
2021/09/21 10:30:07;;;;;;;7.82;5.55;;;7.80;99.90;;;;;;5056522;28;20033;-82
2021/09/21 10:32:42;;;;;;;9.02;6.78;;;7.90;99.90;;;;;;5052864;28;20084;-81
2021/09/21 10:35:30;;;;;;;7.20;5.30;;;7.90;99.90;;;;;;5053698;28;20033;-82
2021/09/21 10:38:07;;;;;;;7.00;5.45;;;7.90;99.90;;;;;;5052607;28;20032;-82
2021/09/21 10:40:45;;;;;;;6.80;5.65;;;7.80;99.90;;;;;;5053627;28;20029;-81
2021/09/21 10:43:40;;;;;;;11.27;7.05;;;7.80;99.90;;;;;;5054052;28;20056;-82
2021/09/21 10:46:10;;;;;;;6.75;6.05;;;7.80;99.90;;;;;;5032269;28;20037;-81
2021/09/21 10:48:39;;;;;;;6.75;6.00;;;7.80;99.90;;;;;;5052167;28;20036;-82
2021/09/21 10:51:07;;;;;;;9.57;6.18;;;7.80;99.90;;;;;;5037539;28;20049;-83
2021/09/21 10:53:33;;;;;;;7.97;6.20;;;7.90;99.90;;;;;;5054167;28;20528;-83
2021/09/21 10:56:03;;;;;;;8.80;6.53;;;7.90;99.90;;;;;;5053620;28;20038;-81
2021/09/21 10:58:29;;;;;;;8.98;5.45;;;7.90;99.90;;;;;;5052951;28;20098;-81
2021/09/21 11:00:56;;;;;;;6.95;5.38;;;7.80;99.90;;;;;;5046688;28;20032;-81
2021/09/21 11:03:27;;;;;;;7.47;5.43;;;7.70;99.90;;;;;;5055223;28;20020;-81
2021/09/21 11:05:57;;;;;;;7.75;5.55;;;7.70;99.90;;;;;;5053562;28;20102;-81
2021/09/21 11:08:31;;;;;;;8.65;5.70;;;7.70;99.90;;;;;;5052629;28;20462;-82
2021/09/21 11:11:02;;;;;;;8.18;7.38;;;7.70;99.90;;;;;;5052857;28;20091;-81
2021/09/21 11:13:35;;;;;;;8.32;6.10;;;7.70;99.90;;;;;;5054921;28;20057;-81
2021/09/21 11:16:07;;;;;;;9.48;6.85;;;7.70;99.90;;;;;;5054423;28;20029;-83
2021/09/21 11:18:35;;;;;;;10.25;6.70;;;7.70;99.90;;;;;;5044073;28;20028;-83
2021/09/21 11:21:05;;;;;;;8.88;7.35;;;7.70;99.90;;;;;;5054558;28;20074;-81
2021/09/21 11:23:35;;;;;;;9.70;6.40;;;7.70;99.90;;;;;;5052631;28;20021;-82
2021/09/21 11:26:07;;;;;;;6.72;5.57;;;7.70;99.90;;;;;;5052688;28;20025;-81
2021/09/21 11:28:35;;;;;;;5.55;4.50;;;7.70;99.90;;;;;;5052976;28;20025;-82
2021/09/21 11:31:01;;;;;;;;;;;7.70;99.90;;;;;;5053719;28;20479;-83
2021/09/21 11:33:30;;;;;;;8.93;6.07;;;7.60;99.90;;;;;;5053848;28;20376;-81
2021/09/21 11:36:01;;;;;;;10.68;5.38;;;7.60;99.90;;;;;;5052489;28;20068;-81
2021/09/21 11:38:30;;;;;;;11.50;6.80;;;7.60;99.90;;;;;;5051040;28;20082;-81
2021/09/21 11:40:56;;;;;;;7.20;5.47;;;7.60;99.90;;;;;;5052815;28;20414;-83
2021/09/21 11:43:23;;;;;;;8.40;5.70;;;7.70;99.90;;;;;;5052668;28;20116;-80
2021/09/21 11:45:50;;;;;;;8.63;6.05;;;7.80;99.90;;;;;;5052678;28;20021;-82
2021/09/21 11:48:21;;;;;;;7.22;5.18;;;7.80;99.90;;;;;;5052222;28;20047;-82
2021/09/21 11:50:48;;;;;;;5.30;4.63;;;7.80;99.90;;;;;;5051996;28;20045;-85
2021/09/21 11:53:16;;;;;;;6.43;5.75;;;7.70;99.90;;;;;;5052410;28;20047;-82
2021/09/21 11:55:45;;;;;;;4.88;4.38;;;7.70;99.90;;;;;;5052361;28;20055;-83
2021/09/21 11:58:14;;;;;;;9.38;5.47;;;7.70;99.90;;;;;;5050864;28;20024;-83
2021/09/21 12:00:42;;;;;;;7.63;6.13;;;7.70;99.90;;;;;;5052364;28;20440;-82
2021/09/21 12:03:18;;;;;;;8.00;6.10;;;7.60;99.90;;;;;;5034120;28;20056;-81
2021/09/21 12:05:45;;;;;;;10.85;7.45;;;7.60;99.90;;;;;;5052212;28;20017;-83
2021/09/21 12:08:21;;;;;;;7.78;6.53;;;7.60;99.90;;;;;;5053448;28;20052;-82
2021/09/21 12:11:12;;;;;;;7.65;6.88;;;7.60;99.90;;;;;;5063378;28;20569;-82
2021/09/21 12:13:39;;;;;;;7.68;6.90;;;7.60;99.90;;;;;;5055697;28;20040;-83
2021/09/21 12:16:10;;;;;;;11.15;7.60;;;7.50;99.90;;;;;;5054846;28;20032;-82
2021/09/21 12:18:37;;;;;;;9.57;7.25;;;7.50;99.90;;;;;;5052205;28;20096;-84
2021/09/21 12:21:15;;;;;;;9.87;6.10;;;7.50;99.90;;;;;;5052595;28;20040;-82
2021/09/21 12:23:43;;;;;;;9.43;5.82;;;7.50;99.90;;;;;;5051787;28;20577;-81
2021/09/21 12:26:10;;;;;;;7.25;6.55;;;7.50;99.90;;;;;;5052726;28;20544;-83
2021/09/21 12:28:41;;;;;;;7.47;6.30;;;7.40;99.90;;;;;;5052247;28;20386;-82
2021/09/21 12:31:07;;;;;;;9.02;7.80;;;7.40;99.90;;;;;;5052014;28;20053;-82
2021/09/21 12:33:40;;;;;;;8.25;6.82;;;7.40;99.90;;;;;;5035109;28;20037;-83
2021/09/21 12:36:22;;;;;;;9.82;8.15;;;7.50;99.90;;;;;;5053698;28;20118;-81
2021/09/21 12:39:01;;;;;;;9.25;7.22;;;7.40;99.90;;;;;;5034902;28;20052;-82
2021/09/21 12:41:30;;;;;;;9.43;6.47;;;7.50;99.90;;;;;;5052112;28;20359;-82
2021/09/21 12:43:58;;;;;;;10.40;9.13;;;7.40;99.90;;;;;;5052188;28;20022;-81
2021/09/21 12:46:27;;;;;;;;;;;7.40;99.90;;;;;;5052467;28;20017;-82
2021/09/21 12:48:59;;;;;;;9.23;8.05;;;7.40;99.90;;;;;;5052229;28;20300;-82
2021/09/21 12:51:31;;;;;;;10.68;7.20;;;7.30;99.90;;;;;;5063400;28;20036;-82
2021/09/21 12:54:01;;;;;;;10.43;7.72;;;7.40;99.90;;;;;;5062373;28;20029;-82
2021/09/21 12:56:31;;;;;;;9.30;6.70;;;7.40;99.90;;;;;;5056105;28;20102;-82
2021/09/21 12:59:09;;;;;;;7.35;6.63;;;7.40;99.90;;;;;;5056699;28;20025;-82
2021/09/21 13:01:35;;;;;;;9.85;7.30;;;7.40;99.90;;;;;;5056433;28;20443;-83
2021/09/21 13:04:01;;;;;;;8.35;6.78;;;7.50;99.90;;;;;;5055734;28;20088;-81
2021/09/21 13:06:27;;;;;;;8.57;6.18;;;7.50;99.90;;;;;;5055179;28;20104;-81
2021/09/21 13:08:53;;;;;;;7.72;6.50;;;7.60;99.90;;;;;;5055935;28;20402;-81
2021/09/21 13:11:19;;;;;;;8.20;5.88;;;7.60;99.90;;;;;;5061337;28;20032;-80
2021/09/21 13:13:45;;;;;;;8.68;5.72;;;7.60;99.90;;;;;;5057060;28;20025;-82
2021/09/21 13:16:11;;;;;;;8.90;6.88;;;7.60;99.90;;;;;;5051650;28;20064;-82